.
WxDataArchive / Data Records for 2007-02-10
2007-02-09 February 2007 2007-02-11

Data Records for Saturday, 10 February 2007

Time	Temp	Chill	HIndex	Humid	Dewpt	 Wind 	HiWind	WindDir	Rain 	Barom 
-----	----	-----	------	-----	-----	------	------	-------	-----	----- 
00:00	6.9	6.9	6.9	64	-2.7	1	4	270	0.00	30.184 
00:05	6.9	6.9	6.9	64	-2.7	1	5	248	0.00	30.178 
00:10	6.7	6.7	6.7	64	-2.9	1	4	248	0.00	30.177 
00:15	6.5	6.5	6.5	65	-2.7	1	6	248	0.00	30.176 
00:20	6.3	6.3	6.3	65	-2.9	1	5	248	0.00	30.177 
00:25	6.3	6.3	6.3	65	-2.9	1	5	270	0.00	30.178 
00:30	6.3	6.3	6.3	65	-2.9	2	5	270	0.00	30.178 
00:35	6.1	6.1	6.1	65	-3.1	1	4	248	0.00	30.178 
00:40	6.1	6.1	6.1	65	-3.1	1	3	270	0.00	30.181 
00:45	6.0	6.0	6.0	65	-3.2	1	3	248	0.00	30.185 
00:50	6.0	6.0	6.0	66	-2.9	1	4	248	0.00	30.185 
00:55	5.8	5.8	5.8	66	-3.1	1	5	270	0.00	30.185 
01:00	5.8	5.8	5.8	66	-3.1	2	5	248	0.00	30.184 
01:05	5.8	5.8	5.8	66	-3.1	1	4	248	0.00	30.185 
01:10	5.8	5.8	5.8	66	-3.1	1	4	270	0.00	30.191 
01:15	5.6	5.6	5.6	66	-3.3	1	5	248	0.00	30.187 
01:20	5.6	5.6	5.6	66	-3.3	1	4	270	0.00	30.190 
01:25	5.6	5.6	5.6	66	-3.3	1	6	270	0.00	30.188 
01:30	5.6	5.6	5.6	66	-3.3	1	7	248	0.00	30.189 
01:35	5.6	5.6	5.6	66	-3.3	1	5	270	0.00	30.190 
01:40	5.6	5.6	5.6	66	-3.3	1	4	248	0.00	30.191 
01:45	5.6	5.6	5.6	66	-3.3	1	4	270	0.00	30.191 
01:50	5.6	5.6	5.6	65	-3.6	2	6	270	0.00	30.187 
01:55	5.4	5.4	5.4	65	-3.8	1	4	270	0.00	30.188 
02:00	5.4	5.4	5.4	65	-3.8	1	4	248	0.00	30.191 
02:05	5.6	5.6	5.6	65	-3.6	1	8	270	0.00	30.191 
02:10	5.6	5.6	5.6	65	-3.6	2	7	270	0.00	30.192 
02:15	5.6	5.6	5.6	65	-3.6	1	4	248	0.00	30.193 
02:20	5.6	5.6	5.6	64	-3.9	2	10	270	0.00	30.195 
02:25	5.4	5.4	5.4	64	-4.1	1	5	248	0.00	30.194 
02:30	5.4	5.4	5.4	64	-4.1	1	5	270	0.00	30.192 
02:35	5.4	5.4	5.4	64	-4.1	1	4	248	0.00	30.193 
02:40	5.4	5.4	5.4	64	-4.1	1	4	270	0.00	30.194 
02:45	5.2	5.2	5.2	64	-4.3	1	4	270	0.00	30.194 
02:50	5.2	5.2	5.2	64	-4.3	1	6	248	0.00	30.195 
02:55	5.2	5.2	5.2	64	-4.3	1	5	248	0.00	30.196 
03:00	5.0	5.0	5.0	64	-4.5	0	2	270	0.00	30.195 
03:05	4.8	4.8	4.8	64	-4.7	1	3	270	0.00	30.194 
03:10	4.8	4.8	4.8	64	-4.7	0	3	248	0.00	30.193 
03:15	4.7	4.7	4.7	64	-4.8	1	3	248	0.00	30.193 
03:20	4.7	4.7	4.7	64	-4.8	0	2	248	0.00	30.192 
03:25	4.5	4.5	4.5	65	-4.6	0	3	248	0.00	30.193 
03:30	4.3	4.3	4.3	65	-4.8	1	3	270	0.00	30.193 
03:35	4.3	4.3	4.3	65	-4.8	0	3	248	0.00	30.194 
03:40	4.3	4.3	4.3	65	-4.8	0	4	248	0.00	30.193 
03:45	4.3	4.3	4.3	65	-4.8	1	4	248	0.00	30.192 
03:50	4.1	4.1	4.1	65	-5.0	1	4	270	0.00	30.190 
03:55	4.1	4.1	4.1	65	-5.0	0	3	248	0.00	30.191 
04:00	4.1	4.1	4.1	65	-5.0	1	4	248	0.00	30.187 
04:05	4.1	4.1	4.1	65	-5.0	1	5	248	0.00	30.185 
04:10	3.9	3.9	3.9	65	-5.2	0	3	248	0.00	30.186 
04:15	3.9	3.9	3.9	66	-4.9	1	4	248	0.00	30.187 
04:20	3.9	3.9	3.9	65	-5.2	1	4	248	0.00	30.185 
04:25	3.7	3.7	3.7	66	-5.1	1	3	248	0.00	30.184 
04:30	3.7	3.7	3.7	66	-5.1	1	4	292	0.00	30.183 
04:35	3.7	3.7	3.7	66	-5.1	1	3	270	0.00	30.185 
04:40	3.5	3.5	3.5	66	-5.3	1	3	248	0.00	30.185 
04:45	3.5	3.5	3.5	66	-5.3	1	3	270	0.00	30.185 
04:50	3.5	3.5	3.5	66	-5.3	1	3	270	0.00	30.184 
04:55	3.5	3.5	3.5	66	-5.3	1	5	270	0.00	30.183 
05:00	3.4	3.4	3.4	66	-5.4	1	4	270	0.00	30.184 
05:05	3.4	3.4	3.4	66	-5.4	0	4	270	0.00	30.191 
05:10	3.2	3.2	3.2	66	-5.6	1	4	248	0.00	30.188 
05:15	3.2	3.2	3.2	66	-5.6	1	3	248	0.00	30.187 
05:20	3.0	3.0	3.0	66	-5.7	0	2	270	0.00	30.185 
05:25	3.0	3.0	3.0	66	-5.7	0	3	270	0.00	30.184 
05:30	2.8	2.8	2.8	67	-5.6	0	2	270	0.00	30.183 
05:35	2.6	2.6	2.6	67	-5.8	0	3	248	0.00	30.182 
05:40	2.6	2.6	2.6	67	-5.8	0	2	248	0.00	30.184 
05:45	2.4	2.4	2.4	67	-6.0	0	2	248	0.00	30.183 
05:50	2.4	2.4	2.4	68	-5.7	0	5	270	0.00	30.186 
05:55	2.4	2.4	2.4	68	-5.7	1	4	248	0.00	30.187 
06:00	2.4	2.4	2.4	68	-5.7	1	5	248	0.00	30.188 
06:05	2.4	2.4	2.4	68	-5.7	1	5	270	0.00	30.192 
06:10	2.4	2.4	2.4	68	-5.7	0	3	248	0.00	30.194 
06:15	2.4	2.4	2.4	68	-5.7	0	3	248	0.00	30.196 
06:20	2.4	2.4	2.4	68	-5.7	0	1	248	0.00	30.199 
06:25	2.2	2.2	2.2	69	-5.6	0	2	248	0.00	30.198 
06:30	2.0	2.0	2.0	69	-5.8	0	1	248	0.00	30.202 
06:35	2.0	2.0	2.0	69	-5.8	0	1	248	0.00	30.202 
06:40	2.0	2.0	2.0	69	-5.8	0	1	248	0.00	30.202 
06:45	2.0	2.0	2.0	69	-5.8	0	3	248	0.00	30.202 
06:50	2.0	2.0	2.0	69	-5.8	0	2	248	0.00	30.203 
06:55	2.0	2.0	2.0	69	-5.8	1	4	248	0.00	30.206 
07:00	2.0	2.0	2.0	70	-5.5	0	2	248	0.00	30.205 
07:05	2.2	2.2	2.2	70	-5.3	1	4	248	0.00	30.207 
07:10	2.2	2.2	2.2	70	-5.3	0	2	248	0.00	30.209 
07:15	2.2	2.2	2.2	70	-5.3	1	4	248	0.00	30.216 
07:20	2.2	2.2	2.2	70	-5.3	1	3	248	0.00	30.215 
07:25	2.2	2.2	2.2	70	-5.3	0	3	248	0.00	30.218 
07:30	2.2	2.2	2.2	70	-5.3	0	4	270	0.00	30.219 
07:35	2.2	2.2	2.2	70	-5.3	0	2	248	0.00	30.220 
07:40	2.2	2.2	2.2	70	-5.3	0	3	248	0.00	30.223 
07:45	2.4	2.4	2.4	71	-4.8	1	4	248	0.00	30.229 
07:50	2.6	2.6	2.6	71	-4.6	1	6	248	0.00	30.231 
07:55	2.8	2.8	2.8	71	-4.4	1	4	248	0.00	30.232 
08:00	3.0	3.0	3.0	71	-4.2	1	4	248	0.00	30.233 
08:05	3.4	3.4	3.4	71	-3.9	1	5	248	0.00	30.236 
08:10	3.5	3.5	3.5	71	-3.8	0	3	248	0.00	30.236 
08:15	3.7	3.7	3.7	71	-3.6	1	5	248	0.00	30.237 
08:20	3.9	3.9	3.9	71	-3.4	1	4	248	0.00	30.238 
08:25	4.1	4.1	4.1	71	-3.2	1	5	248	0.00	30.237 
08:30	4.3	4.3	4.3	71	-3.0	1	5	248	0.00	30.238 
08:35	4.5	4.5	4.5	71	-2.8	0	3	248	0.00	30.240 
08:40	4.7	4.7	4.7	71	-2.6	1	4	248	0.00	30.243 
08:45	4.8	4.8	4.8	71	-2.5	1	5	248	0.00	30.244 
08:50	5.0	5.0	5.0	71	-2.3	1	4	248	0.00	30.245 
08:55	5.4	5.4	5.4	71	-1.9	1	7	248	0.00	30.249 
09:00	5.6	5.6	5.6	70	-2.0	1	4	248	0.00	30.250 
09:05	5.6	5.6	5.6	69	-2.3	2	6	248	0.00	30.252 
09:10	5.8	5.8	5.8	70	-1.8	1	4	248	0.00	30.257 
09:15	6.0	6.0	6.0	69	-1.9	1	3	248	0.00	30.258 
09:20	6.1	6.1	6.1	69	-1.9	1	5	248	0.00	30.257 
09:25	6.3	6.3	6.3	69	-1.7	1	4	270	0.00	30.260 
09:30	6.7	6.7	6.7	69	-1.3	1	3	248	0.00	30.258 
09:35	7.2	7.2	7.2	69	-0.8	1	5	248	0.00	30.258 
09:40	7.6	7.6	7.6	69	-0.4	1	5	248	0.00	30.259 
09:45	7.7	7.7	7.7	69	-0.3	2	4	248	0.00	30.261 
09:50	7.9	7.9	7.9	68	-0.4	2	5	270	0.00	30.260 
09:55	8.1	8.1	8.1	69	0.1	1	3	270	0.00	30.260 
10:00	8.3	8.3	8.3	68	-0.0	1	4	270	0.00	30.260 
10:05	8.6	8.6	8.6	67	-0.1	2	5	270	0.00	30.260 
10:10	9.0	9.0	9.0	67	0.3	2	6	270	0.00	30.261 
10:15	9.7	9.7	9.7	67	1.0	1	4	248	0.00	30.263 
10:20	9.3	9.3	9.3	65	-0.0	3	6	248	0.00	30.263 
10:25	9.3	9.3	9.3	66	0.3	2	9	270	0.00	30.267 
10:30	9.9	9.9	9.9	65	0.5	1	3	270	0.00	30.264 
10:35	9.9	9.9	9.9	65	0.5	3	9	248	0.00	30.264 
10:40	9.9	2.5	9.9	65	0.5	4	10	270	0.00	30.266 
10:45	10.0	10.0	10.0	64	0.3	3	10	270	0.00	30.267 
10:50	10.2	10.2	10.2	65	0.8	2	6	248	0.00	30.266 
10:55	10.5	10.5	10.5	64	0.8	2	4	270	0.00	30.269 
11:00	10.9	10.9	10.9	64	1.1	2	6	270	0.00	30.268 
11:05	10.9	10.9	10.9	64	1.1	2	5	270	0.00	30.270 
11:10	11.1	11.1	11.1	64	1.3	2	10	270	0.00	30.269 
11:15	11.4	11.4	11.4	62	0.9	2	5	270	0.00	30.270 
11:20	11.4	11.4	11.4	63	1.3	2	5	270	0.00	30.272 
11:25	11.7	11.7	11.7	62	1.2	2	6	270	0.00	30.274 
11:30	11.7	11.7	11.7	63	1.6	2	6	270	0.00	30.270 
11:35	12.3	12.3	12.3	63	2.1	2	5	248	0.00	30.272 
11:40	12.6	12.6	12.6	62	2.1	2	6	270	0.00	30.275 
11:45	12.8	12.8	12.8	62	2.3	2	5	270	0.00	30.276 
11:50	12.6	12.6	12.6	62	2.1	3	10	270	0.00	30.276 
11:55	12.9	12.9	12.9	63	2.7	2	7	270	0.00	30.277 
12:00	13.5	13.5	13.5	63	3.3	2	4	270	0.00	30.278 
12:05	13.5	13.5	13.5	63	3.3	2	5	270	0.00	30.278 
12:10	13.5	13.5	13.5	61	2.6	2	6	270	0.00	30.277 
12:15	13.6	13.6	13.6	62	3.0	2	5	270	0.00	30.277 
12:20	13.6	13.6	13.6	62	3.0	2	7	270	0.00	30.276 
12:25	13.8	13.8	13.8	62	3.2	2	5	270	0.00	30.278 
12:30	13.8	13.8	13.8	61	2.9	2	9	270	0.00	30.277 
12:35	14.1	14.1	14.1	62	3.5	2	5	248	0.00	30.277 
12:40	14.4	14.4	14.4	62	3.8	2	6	270	0.00	30.277 
12:45	14.6	14.6	14.6	62	4.0	2	7	270	0.00	30.275 
12:50	15.1	15.1	15.1	62	4.5	2	5	270	0.00	30.274 
12:55	15.1	15.1	15.1	61	4.1	2	7	270	0.00	30.272 
13:00	15.1	15.1	15.1	62	4.5	2	10	270	0.00	30.268 
13:05	15.2	8.7	15.2	62	4.6	4	12	270	0.00	30.269 
13:10	15.4	15.4	15.4	61	4.4	2	6	270	0.00	30.269 
13:15	15.6	15.6	15.6	61	4.6	2	5	248	0.00	30.267 
13:20	16.1	16.1	16.1	62	5.4	2	4	270	0.00	30.267 
13:25	16.2	16.2	16.2	62	5.5	2	4	270	0.00	30.268 
13:30	16.4	16.4	16.4	62	5.7	2	3	270	0.00	30.265 
13:35	16.4	16.4	16.4	61	5.3	2	4	270	0.00	30.265 
13:40	16.5	16.5	16.5	62	5.8	2	4	248	0.00	30.262 
13:45	16.7	16.7	16.7	61	5.6	2	6	270	0.00	30.263 
13:50	16.5	16.5	16.5	61	5.4	3	8	270	0.00	30.264 
13:55	16.4	16.4	16.4	62	5.7	3	9	248	0.00	30.265 
14:00	16.7	16.7	16.7	62	6.0	2	4	270	0.00	30.262 
14:05	16.9	16.9	16.9	61	5.8	2	5	270	0.00	30.261 
14:10	17.0	17.0	17.0	62	6.3	2	6	270	0.00	30.260 
14:15	17.2	17.2	17.2	62	6.4	2	5	270	0.00	30.261 
14:20	17.3	17.3	17.3	61	6.2	2	10	270	0.00	30.260 
14:25	17.7	17.7	17.7	62	6.9	2	6	270	0.00	30.259 
14:30	18.0	18.0	18.0	61	6.9	2	6	248	0.00	30.260 
14:35	18.0	18.0	18.0	60	6.5	3	7	270	0.00	30.260 
14:40	18.0	18.0	18.0	61	6.9	2	6	270	0.00	30.259 
14:45	18.3	18.3	18.3	60	6.8	1	5	248	0.00	30.258 
14:50	18.1	12.0	18.1	59	6.2	4	9	248	0.00	30.258 
14:55	18.1	18.1	18.1	60	6.6	2	6	270	0.00	30.258 
15:00	18.0	11.9	18.0	59	6.1	4	11	248	0.00	30.258 
15:05	17.8	17.8	17.8	60	6.3	2	7	248	0.00	30.257 
15:10	18.1	18.1	18.1	60	6.6	2	7	270	0.00	30.257 
15:15	18.1	18.1	18.1	58	5.8	2	7	248	0.00	30.257 
15:20	18.4	18.4	18.4	59	6.5	2	7	248	0.00	30.256 
15:25	18.4	18.4	18.4	59	6.5	3	10	248	0.00	30.256 
15:30	18.6	18.6	18.6	58	6.3	2	7	248	0.00	30.257 
15:35	18.4	18.4	18.4	58	6.1	3	6	270	0.00	30.258 
15:40	18.4	18.4	18.4	58	6.1	3	8	248	0.00	30.259 
15:45	18.6	18.6	18.6	58	6.3	3	7	248	0.00	30.261 
15:50	18.6	18.6	18.6	57	5.9	3	6	248	0.00	30.264 
15:55	18.4	18.4	18.4	58	6.1	2	8	270	0.00	30.267 
16:00	18.3	18.3	18.3	58	6.0	2	5	292	0.00	30.271 
16:05	18.6	18.6	18.6	57	5.9	2	7	248	0.00	30.275 
16:10	18.4	18.4	18.4	57	5.7	2	5	270	0.00	30.274 
16:15	18.4	18.4	18.4	57	5.7	3	10	270	0.00	30.277 
16:20	17.8	17.8	17.8	58	5.6	3	7	270	0.00	30.276 
16:25	17.7	17.7	17.7	58	5.5	2	7	248	0.00	30.277 
16:30	17.5	17.5	17.5	59	5.6	2	9	270	0.00	30.277 
16:35	17.2	17.2	17.2	58	5.0	3	7	270	0.00	30.278 
16:40	16.9	16.9	16.9	58	4.7	3	11	270	0.00	30.280 
16:45	16.5	16.5	16.5	59	4.7	2	5	292	0.00	30.279 
16:50	16.5	16.5	16.5	59	4.7	2	5	270	0.00	30.278 
16:55	16.5	16.5	16.5	58	4.3	2	7	270	0.00	30.279 
17:00	16.2	16.2	16.2	58	4.1	2	7	270	0.00	30.279 
17:05	16.1	16.1	16.1	57	3.6	2	6	248	0.00	30.279 
17:10	15.9	15.9	15.9	56	3.0	3	10	248	0.00	30.279 
17:15	15.4	15.4	15.4	57	2.9	3	11	270	0.00	30.281 
17:20	15.1	15.1	15.1	57	2.6	2	7	248	0.00	30.281 
17:25	14.9	14.9	14.9	57	2.5	2	7	248	0.00	30.282 
17:30	14.8	14.8	14.8	57	2.4	2	9	270	0.00	30.281 
17:35	14.6	14.6	14.6	56	1.8	2	7	270	0.00	30.281 
17:40	14.3	14.3	14.3	56	1.5	1	5	248	0.00	30.281 
17:45	14.0	14.0	14.0	56	1.2	2	7	270	0.00	30.282 
17:50	13.8	13.8	13.8	56	1.0	1	4	270	0.00	30.283 
17:55	13.5	13.5	13.5	57	1.1	1	4	248	0.00	30.284 
18:00	13.3	13.3	13.3	58	1.3	1	6	248	0.00	30.287 
18:05	12.9	12.9	12.9	59	1.3	1	4	270	0.00	30.287 
18:10	12.8	12.8	12.8	56	0.1	1	5	270	0.00	30.288 
18:15	12.4	12.4	12.4	55	-0.7	1	7	248	0.00	30.287 
18:20	12.1	12.1	12.1	55	-0.9	0	3	248	0.00	30.287 
18:25	11.9	11.9	11.9	55	-1.1	1	5	248	0.00	30.287 
18:30	11.7	11.7	11.7	56	-0.9	1	5	248	0.00	30.288 
18:35	11.6	11.6	11.6	56	-1.0	1	6	248	0.00	30.288 
18:40	11.2	11.2	11.2	54	-2.2	2	5	270	0.00	30.290 
18:45	10.9	10.9	10.9	54	-2.4	2	6	248	0.00	30.288 
18:50	10.7	10.7	10.7	54	-2.6	1	4	248	0.00	30.289 
18:55	10.4	10.4	10.4	55	-2.5	0	1	248	0.00	30.289 
19:00	10.2	10.2	10.2	55	-2.7	0	1	248	0.00	30.289 
19:05	9.9	9.9	9.9	55	-3.0	0	2	248	0.00	30.289 
19:10	9.7	9.7	9.7	56	-2.8	1	4	248	0.00	30.289 
19:15	9.3	9.3	9.3	56	-3.2	0	2	248	0.00	30.290 
19:20	9.2	9.2	9.2	56	-3.3	1	5	270	0.00	30.288 
19:25	9.2	9.2	9.2	57	-2.9	1	7	248	0.00	30.288 
19:30	9.0	9.0	9.0	57	-3.1	2	5	270	0.00	30.286 
19:35	8.8	8.8	8.8	57	-3.3	3	7	270	0.00	30.285 
19:40	8.8	8.8	8.8	58	-2.9	1	4	248	0.00	30.286 
19:45	8.6	8.6	8.6	58	-3.1	1	6	248	0.00	30.288 
19:50	8.4	8.4	8.4	59	-2.9	0	2	248	0.00	30.292 
19:55	8.1	8.1	8.1	58	-3.6	1	5	270	0.00	30.299 
20:00	8.1	8.1	8.1	58	-3.6	1	4	248	0.00	30.288 
20:05	7.9	7.9	7.9	59	-3.4	0	3	248	0.00	30.284 
20:10	7.7	7.7	7.7	59	-3.6	1	5	270	0.00	30.284 
20:15	7.6	7.6	7.6	59	-3.7	1	6	248	0.00	30.283 
20:20	7.4	7.4	7.4	60	-3.5	2	6	270	0.00	30.284 
20:25	7.2	7.2	7.2	60	-3.7	1	3	248	0.00	30.284 
20:30	7.0	7.0	7.0	60	-3.9	0	2	248	0.00	30.285 
20:35	6.9	6.9	6.9	61	-3.7	1	6	248	0.00	30.285 
20:40	6.9	6.9	6.9	61	-3.7	2	7	248	0.00	30.285 
20:45	6.7	6.7	6.7	61	-3.9	1	4	270	0.00	30.285 
20:50	6.5	6.5	6.5	61	-4.0	1	4	248	0.00	30.285 
20:55	6.5	6.5	6.5	61	-4.0	1	4	248	0.00	30.284 
21:00	6.3	6.3	6.3	61	-4.2	1	4	248	0.00	30.285 
21:05	6.1	6.1	6.1	62	-4.1	0	3	248	0.00	30.282 
21:10	6.1	6.1	6.1	62	-4.1	0	4	248	0.00	30.283 
21:15	6.0	6.0	6.0	62	-4.2	0	2	248	0.00	30.282 
21:20	6.0	6.0	6.0	63	-3.8	1	8	248	0.00	30.282 
21:25	6.0	6.0	6.0	62	-4.2	1	6	248	0.00	30.281 
21:30	6.0	6.0	6.0	62	-4.2	1	6	270	0.00	30.282 
21:35	5.8	5.8	5.8	63	-4.0	1	4	248	0.00	30.282 
21:40	5.8	5.8	5.8	63	-4.0	1	4	248	0.00	30.280 
21:45	5.8	5.8	5.8	63	-4.0	1	5	248	0.00	30.281 
21:50	5.8	5.8	5.8	63	-4.0	2	5	270	0.00	30.283 
21:55	5.8	5.8	5.8	63	-4.0	1	6	248	0.00	30.283 
22:00	5.8	5.8	5.8	63	-4.0	3	9	270	0.00	30.282 
22:05	5.8	5.8	5.8	63	-4.0	3	9	248	0.00	30.280 
22:10	5.8	5.8	5.8	63	-4.0	2	5	248	0.00	30.280 
22:15	5.6	5.6	5.6	64	-3.9	2	6	248	0.00	30.281 
22:20	5.6	5.6	5.6	64	-3.9	2	6	270	0.00	30.281 
22:25	5.4	5.4	5.4	64	-4.1	1	7	270	0.00	30.282 
22:30	5.4	5.4	5.4	65	-3.8	2	6	248	0.00	30.282 
22:35	5.2	5.2	5.2	65	-4.0	1	3	248	0.00	30.282 
22:40	5.2	5.2	5.2	65	-4.0	1	6	270	0.00	30.283 
22:45	5.0	5.0	5.0	65	-4.2	1	6	248	0.00	30.281 
22:50	5.0	5.0	5.0	65	-4.2	1	5	270	0.00	30.282 
22:55	5.0	5.0	5.0	65	-4.2	2	6	248	0.00	30.285 
23:00	5.0	5.0	5.0	66	-3.8	2	6	248	0.00	30.288 
23:05	4.8	4.8	4.8	66	-4.0	1	6	248	0.00	30.284 
23:10	4.8	4.8	4.8	66	-4.0	2	6	248	0.00	30.281 
23:15	4.8	4.8	4.8	66	-4.0	2	6	248	0.00	30.280 
23:20	4.7	4.7	4.7	67	-3.8	2	10	248	0.00	30.280 
23:25	4.7	4.7	4.7	67	-3.8	1	7	248	0.00	30.279 
23:30	4.7	4.7	4.7	67	-3.8	1	6	270	0.00	30.278 
23:35	4.5	4.5	4.5	67	-4.0	1	5	270	0.00	30.276 
23:40	4.5	4.5	4.5	67	-4.0	1	4	248	0.00	30.276 
23:45	4.5	4.5	4.5	67	-4.0	2	9	248	0.00	30.277 
23:50	4.3	4.3	4.3	67	-4.2	1	7	248	0.00	30.277 
23:55	4.3	4.3	4.3	66	-4.5	2	6	270	0.00	30.276 

CoCoRaHS
IN-AL-39
A2 Web Hosting
Creative Commons License
GoDaddy
Look for:

loaded 2017-12-12 01:29:28 • last modified 2010-11-18 10:43:29
Privacy PolicyDisclaimer
• wx.awcolley.com is powered by PmWiki v.2002016 •
• all content (unless otherwise noted) © 2017 A W Colley